首页
METAR-TAF:

METAR-TAF

机场 :

布雷斯特-布列塔尼機場

布雷斯特, 法国

纬度: 48-27N, 经度: 004-25W, 海拔: 99米

当前天气观测

该预报发布于38分钟前的09:00 UTC
风速11节,风向西,在西转西南西北之间变化
温度 13°C
湿度 82%
气压 1007 hPa
能见度10公里或以上
少量云层高于3000英尺
阴天层高于6200英尺

METAR: LFRB 150900Z AUTO 28011KT 250V310 9999 FEW030 OVC062 13/10 Q1007 TEMPO 24015G25KT SHRA SCT014TCU

时间: 11:38 (09:38 UTC)

预报

该预报发布于4小时和38分钟前的05:00 UTC
预报有效从15日的 06点(UTC)到 16日的 12点(UTC)
风速15节,风向西南
能见度10公里或以上
少量云层高于2000英尺
散云层高于3000英尺
短暂存在
从 15日的 06点(UTC)到 15日的 12点(UTC)
风速15节,风向西转西南,有时为25节阵风
散云层高于1400英尺, 塔状积云.
阵雨
几率 40% :
短暂存在
从 15日的 06点(UTC)到 15日的 09点(UTC)
多云层高于1200英尺, 积雨云.
雷暴, 雨
成为
从 15日的 12点(UTC)到 15日的 16点(UTC)
风速15节,风向南转西南,有时为25节阵风
多云层高于1000英尺
小雨
短暂存在
从 15日的 18点(UTC)到 16日的 06点(UTC)
风速20节,风向南转西南,有时为35节阵风
能見度: 4000
阴天层高于500英尺
雨, 毛毛雨
成为
从 16日的 06点(UTC)到 16日的 09点(UTC)
风速10节,风向北转西北
散云层高于2000英尺

TAF: LFRB 150500Z 1506/1612 23015KT 9999 FEW020 SCT030 TEMPO 1506/1512 24015G25KT SHRA SCT014TCU PROB40 TEMPO 1506/1509 TSRA BKN012CB BECMG 1512/1516 20015G25KT -RA BKN010 TEMPO 1518/1606 20020G35KT 4000 RADZ OVC005 BECMG 1606/1609 34010KT NSW SCT020

超过4000个机场的气象观测和天气预报(METAR&TAF报告)。

可查询的气象台以黄色和红色小点在地图上表示。

将鼠标移到小点上方,可查看气象台名称。

然后点击查看天气观测和预报。

如需切换地图:点击带黑十字的绿色按钮放大地图;点击带横线的绿色按钮缩小地图;或者点击绿色箭头查看邻近地区的地图。


METAR-TAF: